createdAt,value
2022-10-25T00:17:11.071Z,74370.50
2022-10-25T00:27:13.458Z,74382.66
2022-10-25T00:37:15.636Z,74404.91
2022-10-25T00:47:20.866Z,74410.97
2022-10-25T00:57:28.913Z,74415.03
2022-10-25T01:07:31.376Z,74408.94
2022-10-25T01:17:38.326Z,74413.00
2022-10-25T01:27:52.752Z,74423.13
2022-10-25T01:38:09.984Z,74423.13
2022-10-25T01:48:19.871Z,74429.19
2022-10-25T01:58:35.862Z,74437.28
2022-10-25T02:08:49.884Z,74455.47
2022-10-25T02:18:58.599Z,74471.66
2022-10-25T02:29:06.827Z,74491.91
2022-10-25T02:39:09.179Z,74485.84
2022-10-25T02:49:17.950Z,74487.84
2022-10-25T02:59:21.441Z,74491.91
2022-10-25T03:09:26.738Z,74483.81
2022-10-25T03:19:28.706Z,74483.81
2022-10-25T03:29:33.011Z,74483.81
2022-10-25T03:39:37.536Z,74485.84
2022-10-25T03:49:44.121Z,74481.78
2022-10-25T03:59:50.067Z,74491.91
2022-10-25T04:09:52.078Z,74477.75
2022-10-25T04:19:58.645Z,74475.72
2022-10-25T04:30:00.621Z,74459.53
2022-10-25T04:40:05.786Z,74469.66
2022-10-25T04:50:08.775Z,74471.66
2022-10-25T05:00:13.791Z,74467.63
2022-10-25T05:10:16.329Z,74475.72
2022-10-25T05:20:22.690Z,74495.94
2022-10-25T05:30:29.695Z,74500.00
2022-10-25T05:40:35.728Z,74520.22
2022-10-25T06:01:05.264Z,74526.28
2022-10-25T06:11:15.142Z,74530.34
2022-10-25T06:21:28.801Z,74459.53
2022-10-25T06:31:34.076Z,74410.97
2022-10-25T06:41:41.213Z,74350.28
2022-10-25T06:51:45.517Z,74245.09
2022-10-25T07:01:52.835Z,74237.00
2022-10-25T07:12:00.127Z,74218.78
2022-10-25T07:22:03.230Z,74095.38
2022-10-25T07:32:07.969Z,73974.00
2022-10-25T07:42:12.412Z,73911.28
2022-10-25T07:52:14.519Z,73925.44
2022-10-25T08:02:21.830Z,73984.13
2022-10-25T08:12:26.404Z,74040.75
2022-10-25T08:22:28.344Z,74115.59
2022-10-25T08:32:31.730Z,74097.41
2022-10-25T08:43:04.482Z,74131.78
2022-10-25T08:53:17.347Z,74184.38
2022-10-25T09:03:28.035Z,74220.81
2022-10-25T09:13:45.764Z,74186.41
2022-10-25T09:24:03.075Z,74150.00
2022-10-25T09:34:09.940Z,74117.63
2022-10-25T09:44:34.616Z,74154.03
2022-10-25T09:54:50.188Z,74164.16
2022-10-25T10:04:56.943Z,74164.16
2022-10-25T10:15:05.720Z,74182.38
2022-10-25T10:25:18.256Z,74190.47
2022-10-25T10:35:29.187Z,74170.22
2022-10-25T10:45:31.653Z,74160.13
2022-10-25T10:55:50.748Z,74152.03
2022-10-25T11:05:54.331Z,74139.88
2022-10-25T11:16:36.210Z,74115.59
2022-10-25T11:26:46.519Z,74101.44
2022-10-25T11:37:03.687Z,74103.47
2022-10-25T11:47:26.703Z,74119.66
2022-10-25T11:57:36.572Z,74145.97
2022-10-25T12:07:48.843Z,74141.91
2022-10-25T12:17:55.193Z,74119.66
2022-10-25T12:28:28.206Z,74123.69
2022-10-25T12:38:39.945Z,74115.59
2022-10-25T12:49:03.472Z,74131.78
2022-10-25T12:59:28.924Z,74139.88
2022-10-25T13:09:33.696Z,74143.94
2022-10-25T13:19:54.965Z,74154.03
2022-10-25T13:30:21.237Z,74143.94
2022-10-25T13:40:31.879Z,74147.97
2022-10-25T13:50:48.920Z,74178.31
2022-10-25T14:00:53.677Z,74192.47
2022-10-25T14:11:10.668Z,74220.81
2022-10-25T14:21:12.772Z,74241.03
2022-10-25T14:31:21.927Z,74255.19
2022-10-25T14:41:29.088Z,74275.44
2022-10-25T14:51:35.683Z,74321.97
2022-10-25T15:01:40.653Z,74334.09
2022-10-25T15:12:25.100Z,74344.22
2022-10-25T15:22:41.552Z,74348.25
2022-10-25T15:32:45.030Z,74360.41
2022-10-25T15:42:53.071Z,74372.53
2022-10-25T15:53:01.238Z,74396.81
2022-10-25T16:03:07.873Z,74417.03
2022-10-25T16:13:17.017Z,74437.28
2022-10-25T16:23:25.421Z,74461.56
2022-10-25T16:33:28.686Z,74471.66
2022-10-25T16:43:33.176Z,74481.78
2022-10-25T16:53:40.556Z,74493.94
2022-10-25T17:03:50.540Z,74506.06
2022-10-25T17:14:03.444Z,74508.09
2022-10-25T17:24:09.910Z,74528.31
2022-10-25T17:34:12.151Z,74544.50
2022-10-25T17:44:17.615Z,74540.47
2022-10-25T17:54:22.237Z,74540.47
2022-10-25T18:04:27.396Z,74469.66
2022-10-25T18:14:29.397Z,74520.22
2022-10-25T18:24:31.508Z,74532.38
2022-10-25T18:34:36.657Z,74538.44
2022-10-25T18:44:46.865Z,74550.56
2022-10-25T18:54:53.905Z,74560.69
2022-10-25T19:04:59.382Z,74564.75
2022-10-25T19:15:05.388Z,74576.88
2022-10-25T19:25:09.301Z,74584.97
2022-10-25T19:35:16.097Z,74601.16
2022-10-25T19:45:18.372Z,74619.38
2022-10-25T19:55:23.326Z,74625.44
2022-10-25T20:05:30.820Z,74637.56
2022-10-25T20:15:32.827Z,74655.78
2022-10-25T20:25:41.340Z,74667.91
2022-10-25T20:35:46.453Z,74671.97
2022-10-25T20:45:54.193Z,74690.19
2022-10-25T20:55:59.133Z,74706.38
2022-10-25T21:06:07.161Z,74730.66
2022-10-25T21:16:12.723Z,74754.94
2022-10-25T21:26:21.733Z,74769.09
2022-10-25T21:36:29.336Z,74777.19
2022-10-25T21:46:31.329Z,74791.34
2022-10-25T21:56:37.756Z,74783.25
2022-10-25T22:06:43.132Z,74791.34
2022-10-25T22:16:51.232Z,74803.47
2022-10-25T22:26:54.613Z,74817.66
2022-10-25T22:36:57.544Z,74827.75
2022-10-25T22:47:01.946Z,74852.03
2022-10-25T22:57:06.260Z,74878.34
2022-10-25T23:07:08.273Z,74892.50
2022-10-25T23:17:11.372Z,74896.56
2022-10-25T23:27:18.241Z,74892.50
2022-10-25T23:37:23.306Z,74904.66
2022-10-25T23:47:29.149Z,74914.78
2022-10-25T23:57:31.834Z,74894.53
